sensor_id;sensor_type;location;lat;lon;timestamp;temperature;humidity
50067;DHT22;35952;52.524;13.340;2023-04-19T00:00:32;7.00;99.90
50067;DHT22;35952;52.524;13.340;2023-04-19T00:03:21;7.00;99.90
50067;DHT22;35952;52.524;13.340;2023-04-19T00:05:49;7.10;99.90
50067;DHT22;35952;52.524;13.340;2023-04-19T00:08:18;7.10;99.90
50067;DHT22;35952;52.524;13.340;2023-04-19T00:10:44;7.10;99.90
50067;DHT22;35952;52.524;13.340;2023-04-19T00:13:10;7.20;99.90
50067;DHT22;35952;52.524;13.340;2023-04-19T00:15:36;7.20;99.90
50067;DHT22;35952;52.524;13.340;2023-04-19T00:18:02;7.30;99.90
50067;DHT22;35952;52.524;13.340;2023-04-19T00:20:28;7.40;99.90
50067;DHT22;35952;52.524;13.340;2023-04-19T00:22:53;7.40;99.90
50067;DHT22;35952;52.524;13.340;2023-04-19T00:25:19;7.50;99.90
50067;DHT22;35952;52.524;13.340;2023-04-19T00:27:44;7.50;99.90
50067;DHT22;35952;52.524;13.340;2023-04-19T00:30:10;7.50;99.90
50067;DHT22;35952;52.524;13.340;2023-04-19T00:32:36;7.50;99.90
50067;DHT22;35952;52.524;13.340;2023-04-19T00:35:01;7.40;99.90
50067;DHT22;35952;52.524;13.340;2023-04-19T00:37:28;7.40;99.90
50067;DHT22;35952;52.524;13.340;2023-04-19T00:39:53;7.30;99.90
50067;DHT22;35952;52.524;13.340;2023-04-19T00:42:18;7.40;99.90
50067;DHT22;35952;52.524;13.340;2023-04-19T00:44:44;7.30;99.90
50067;DHT22;35952;52.524;13.340;2023-04-19T00:47:09;7.30;99.90
50067;DHT22;35952;52.524;13.340;2023-04-19T00:49:35;7.30;99.90
50067;DHT22;35952;52.524;13.340;2023-04-19T00:52:01;7.30;99.90
50067;DHT22;35952;52.524;13.340;2023-04-19T00:54:27;7.20;99.90
50067;DHT22;35952;52.524;13.340;2023-04-19T00:56:52;7.10;99.90
50067;DHT22;35952;52.524;13.340;2023-04-19T00:59:18;7.10;99.90
50067;DHT22;35952;52.524;13.340;2023-04-19T01:01:43;7.20;99.90
50067;DHT22;35952;52.524;13.340;2023-04-19T01:04:09;7.20;99.90
50067;DHT22;35952;52.524;13.340;2023-04-19T01:06:35;7.20;99.90
50067;DHT22;35952;52.524;13.340;2023-04-19T01:09:02;7.20;99.90
50067;DHT22;35952;52.524;13.340;2023-04-19T01:11:28;7.20;99.90
50067;DHT22;35952;52.524;13.340;2023-04-19T01:13:56;7.10;99.90
50067;DHT22;35952;52.524;13.340;2023-04-19T01:16:24;7.10;99.90
50067;DHT22;35952;52.524;13.340;2023-04-19T01:18:50;7.00;99.90
50067;DHT22;35952;52.524;13.340;2023-04-19T01:21:16;7.00;99.90
50067;DHT22;35952;52.524;13.340;2023-04-19T01:23:43;6.90;99.90
50067;DHT22;35952;52.524;13.340;2023-04-19T01:26:08;6.90;99.90
50067;DHT22;35952;52.524;13.340;2023-04-19T01:28:33;6.80;99.90
50067;DHT22;35952;52.524;13.340;2023-04-19T01:30:59;6.80;99.90
50067;DHT22;35952;52.524;13.340;2023-04-19T01:33:25;6.70;99.90
50067;DHT22;35952;52.524;13.340;2023-04-19T01:35:50;6.70;99.90
50067;DHT22;35952;52.524;13.340;2023-04-19T01:38:16;6.60;99.90
50067;DHT22;35952;52.524;13.340;2023-04-19T01:40:42;6.50;99.90
50067;DHT22;35952;52.524;13.340;2023-04-19T01:43:09;6.50;99.90
50067;DHT22;35952;52.524;13.340;2023-04-19T01:45:35;6.50;99.90
50067;DHT22;35952;52.524;13.340;2023-04-19T01:48:01;6.40;99.90
50067;DHT22;35952;52.524;13.340;2023-04-19T01:50:29;6.40;99.90
50067;DHT22;35952;52.524;13.340;2023-04-19T01:52:55;6.40;99.90
50067;DHT22;35952;52.524;13.340;2023-04-19T01:55:20;6.40;99.90
50067;DHT22;35952;52.524;13.340;2023-04-19T01:57:46;6.40;99.90
50067;DHT22;35952;52.524;13.340;2023-04-19T02:00:12;6.40;99.90
50067;DHT22;35952;52.524;13.340;2023-04-19T02:02:37;6.30;99.90
50067;DHT22;35952;52.524;13.340;2023-04-19T02:05:06;6.20;99.90
50067;DHT22;35952;52.524;13.340;2023-04-19T02:07:32;6.30;99.90
50067;DHT22;35952;52.524;13.340;2023-04-19T02:09:58;6.20;99.90
50067;DHT22;35952;52.524;13.340;2023-04-19T02:12:27;6.00;99.90
50067;DHT22;35952;52.524;13.340;2023-04-19T02:14:54;6.10;99.90
50067;DHT22;35952;52.524;13.340;2023-04-19T02:17:22;6.10;99.90
50067;DHT22;35952;52.524;13.340;2023-04-19T02:19:48;6.10;99.90
50067;DHT22;35952;52.524;13.340;2023-04-19T02:22:14;6.10;99.90
50067;DHT22;35952;52.524;13.340;2023-04-19T02:24:39;6.10;99.90
50067;DHT22;35952;52.524;13.340;2023-04-19T02:27:05;6.10;99.90
50067;DHT22;35952;52.524;13.340;2023-04-19T02:29:31;6.00;99.90
50067;DHT22;35952;52.524;13.340;2023-04-19T02:31:57;5.90;99.90
50067;DHT22;35952;52.524;13.340;2023-04-19T02:34:22;5.90;99.90
50067;DHT22;35952;52.524;13.340;2023-04-19T02:36:48;5.80;99.90
50067;DHT22;35952;52.524;13.340;2023-04-19T02:39:13;5.80;99.90
50067;DHT22;35952;52.524;13.340;2023-04-19T02:41:39;5.90;99.90
50067;DHT22;35952;52.524;13.340;2023-04-19T02:44:05;5.90;99.90
50067;DHT22;35952;52.524;13.340;2023-04-19T02:46:30;5.80;99.90
50067;DHT22;35952;52.524;13.340;2023-04-19T02:48:56;5.80;99.90
50067;DHT22;35952;52.524;13.340;2023-04-19T02:51:21;5.80;99.90
50067;DHT22;35952;52.524;13.340;2023-04-19T02:53:47;5.70;99.90
50067;DHT22;35952;52.524;13.340;2023-04-19T02:56:12;5.70;99.90
50067;DHT22;35952;52.524;13.340;2023-04-19T02:58:38;5.60;99.90
50067;DHT22;35952;52.524;13.340;2023-04-19T03:01:03;5.50;99.90
50067;DHT22;35952;52.524;13.340;2023-04-19T03:03:29;5.50;99.90
50067;DHT22;35952;52.524;13.340;2023-04-19T03:05:55;5.50;99.90
50067;DHT22;35952;52.524;13.340;2023-04-19T03:08:20;5.50;99.90
50067;DHT22;35952;52.524;13.340;2023-04-19T03:10:46;5.50;99.90
50067;DHT22;35952;52.524;13.340;2023-04-19T03:13:11;5.50;99.90
50067;DHT22;35952;52.524;13.340;2023-04-19T03:15:37;5.40;99.90
50067;DHT22;35952;52.524;13.340;2023-04-19T03:18:02;5.40;99.90
50067;DHT22;35952;52.524;13.340;2023-04-19T03:20:28;5.40;99.90
50067;DHT22;35952;52.524;13.340;2023-04-19T03:22:53;5.40;99.90
50067;DHT22;35952;52.524;13.340;2023-04-19T03:25:19;5.40;99.90
50067;DHT22;35952;52.524;13.340;2023-04-19T03:27:44;5.30;99.90
50067;DHT22;35952;52.524;13.340;2023-04-19T03:30:12;5.30;99.90
50067;DHT22;35952;52.524;13.340;2023-04-19T03:32:37;5.30;99.90
50067;DHT22;35952;52.524;13.340;2023-04-19T03:35:03;5.30;99.90
50067;DHT22;35952;52.524;13.340;2023-04-19T03:37:29;5.30;99.90
50067;DHT22;35952;52.524;13.340;2023-04-19T03:39:54;5.20;99.90
50067;DHT22;35952;52.524;13.340;2023-04-19T03:42:20;5.20;99.90
50067;DHT22;35952;52.524;13.340;2023-04-19T03:44:46;5.20;99.90
50067;DHT22;35952;52.524;13.340;2023-04-19T03:47:11;5.10;99.90
50067;DHT22;35952;52.524;13.340;2023-04-19T03:49:37;5.00;99.90
50067;DHT22;35952;52.524;13.340;2023-04-19T03:52:03;5.00;99.90
50067;DHT22;35952;52.524;13.340;2023-04-19T03:54:28;5.00;99.90
50067;DHT22;35952;52.524;13.340;2023-04-19T03:56:54;5.00;99.90
50067;DHT22;35952;52.524;13.340;2023-04-19T03:59:19;5.10;99.90
50067;DHT22;35952;52.524;13.340;2023-04-19T04:01:45;5.00;99.90
50067;DHT22;35952;52.524;13.340;2023-04-19T04:04:10;5.00;99.90
50067;DHT22;35952;52.524;13.340;2023-04-19T04:06:36;5.00;99.90
50067;DHT22;35952;52.524;13.340;2023-04-19T04:09:02;5.00;99.90
50067;DHT22;35952;52.524;13.340;2023-04-19T04:11:28;5.00;99.90
50067;DHT22;35952;52.524;13.340;2023-04-19T04:13:55;4.90;99.90
50067;DHT22;35952;52.524;13.340;2023-04-19T04:16:21;4.80;99.90
50067;DHT22;35952;52.524;13.340;2023-04-19T04:18:46;4.90;99.90
50067;DHT22;35952;52.524;13.340;2023-04-19T04:21:12;4.90;99.90
50067;DHT22;35952;52.524;13.340;2023-04-19T04:23:37;4.90;99.90
50067;DHT22;35952;52.524;13.340;2023-04-19T04:26:03;4.80;99.90
50067;DHT22;35952;52.524;13.340;2023-04-19T04:28:30;4.80;99.90
50067;DHT22;35952;52.524;13.340;2023-04-19T04:30:56;4.90;99.90
50067;DHT22;35952;52.524;13.340;2023-04-19T04:33:26;4.90;99.90
50067;DHT22;35952;52.524;13.340;2023-04-19T04:35:55;4.90;99.90
50067;DHT22;35952;52.524;13.340;2023-04-19T04:38:22;5.00;99.90
50067;DHT22;35952;52.524;13.340;2023-04-19T04:40:51;5.00;99.90
50067;DHT22;35952;52.524;13.340;2023-04-19T04:43:28;5.10;99.90
50067;DHT22;35952;52.524;13.340;2023-04-19T04:45:54;5.10;99.90
50067;DHT22;35952;52.524;13.340;2023-04-19T04:48:22;5.20;99.90
50067;DHT22;35952;52.524;13.340;2023-04-19T04:50:48;5.30;99.90
50067;DHT22;35952;52.524;13.340;2023-04-19T04:53:13;5.30;99.90
50067;DHT22;35952;52.524;13.340;2023-04-19T04:55:39;5.40;99.90
50067;DHT22;35952;52.524;13.340;2023-04-19T04:58:05;5.40;99.90
50067;DHT22;35952;52.524;13.340;2023-04-19T05:00:31;5.50;99.90
50067;DHT22;35952;52.524;13.340;2023-04-19T05:02:57;5.60;99.90
50067;DHT22;35952;52.524;13.340;2023-04-19T05:05:23;5.80;99.90
50067;DHT22;35952;52.524;13.340;2023-04-19T05:07:48;5.90;99.90
50067;DHT22;35952;52.524;13.340;2023-04-19T05:10:14;6.00;99.90
50067;DHT22;35952;52.524;13.340;2023-04-19T05:12:40;6.10;99.90
50067;DHT22;35952;52.524;13.340;2023-04-19T05:15:06;6.80;99.90
50067;DHT22;35952;52.524;13.340;2023-04-19T05:17:32;8.00;99.90
50067;DHT22;35952;52.524;13.340;2023-04-19T05:19:57;9.30;99.90
50067;DHT22;35952;52.524;13.340;2023-04-19T05:22:23;10.50;99.90
50067;DHT22;35952;52.524;13.340;2023-04-19T05:24:48;11.50;99.90
50067;DHT22;35952;52.524;13.340;2023-04-19T05:27:14;11.50;99.90
50067;DHT22;35952;52.524;13.340;2023-04-19T05:29:40;12.00;99.90
50067;DHT22;35952;52.524;13.340;2023-04-19T05:32:06;12.70;99.90
50067;DHT22;35952;52.524;13.340;2023-04-19T05:34:32;12.90;97.50
50067;DHT22;35952;52.524;13.340;2023-04-19T05:36:58;13.30;94.90
50067;DHT22;35952;52.524;13.340;2023-04-19T05:39:24;13.60;92.80
50067;DHT22;35952;52.524;13.340;2023-04-19T05:41:49;14.00;90.20
50067;DHT22;35952;52.524;13.340;2023-04-19T05:44:15;13.60;89.30
50067;DHT22;35952;52.524;13.340;2023-04-19T05:46:40;14.00;87.00
50067;DHT22;35952;52.524;13.340;2023-04-19T05:49:06;14.10;85.10
50067;DHT22;35952;52.524;13.340;2023-04-19T05:51:31;14.20;84.30
50067;DHT22;35952;52.524;13.340;2023-04-19T05:53:59;14.60;80.50
50067;DHT22;35952;52.524;13.340;2023-04-19T05:56:24;14.80;77.40
50067;DHT22;35952;52.524;13.340;2023-04-19T05:58:50;14.80;75.00
50067;DHT22;35952;52.524;13.340;2023-04-19T06:01:15;14.30;75.00
50067;DHT22;35952;52.524;13.340;2023-04-19T06:03:41;14.20;76.20
50067;DHT22;35952;52.524;13.340;2023-04-19T06:06:06;14.20;77.30
50067;DHT22;35952;52.524;13.340;2023-04-19T06:08:32;14.30;76.60
50067;DHT22;35952;52.524;13.340;2023-04-19T06:10:58;14.50;76.50
50067;DHT22;35952;52.524;13.340;2023-04-19T06:30:35;16.10;63.30
50067;DHT22;35952;52.524;13.340;2023-04-19T06:33:07;15.80;63.30
50067;DHT22;35952;52.524;13.340;2023-04-19T06:36:10;16.30;63.40
50067;DHT22;35952;52.524;13.340;2023-04-19T06:41:27;17.10;59.20
50067;DHT22;35952;52.524;13.340;2023-04-19T06:43:58;17.60;57.80
50067;DHT22;35952;52.524;13.340;2023-04-19T06:49:32;18.10;55.60
50067;DHT22;35952;52.524;13.340;2023-04-19T06:52:04;17.20;55.40
50067;DHT22;35952;52.524;13.340;2023-04-19T06:57:26;17.70;55.10
50067;DHT22;35952;52.524;13.340;2023-04-19T07:00:14;18.50;53.10
50067;DHT22;35952;52.524;13.340;2023-04-19T07:03:06;18.90;51.10
50067;DHT22;35952;52.524;13.340;2023-04-19T07:05:55;18.80;50.40
50067;DHT22;35952;52.524;13.340;2023-04-19T07:08:34;19.20;50.10
50067;DHT22;35952;52.524;13.340;2023-04-19T07:11:28;19.40;49.40
50067;DHT22;35952;52.524;13.340;2023-04-19T07:14:34;19.90;47.40
50067;DHT22;35952;52.524;13.340;2023-04-19T07:19:55;19.40;47.20
50067;DHT22;35952;52.524;13.340;2023-04-19T07:22:32;18.70;47.60
50067;DHT22;35952;52.524;13.340;2023-04-19T07:25:15;19.00;47.30
50067;DHT22;35952;52.524;13.340;2023-04-19T07:27:44;19.20;47.50
50067;DHT22;35952;52.524;13.340;2023-04-19T07:30:12;19.20;46.50
50067;DHT22;35952;52.524;13.340;2023-04-19T07:32:50;18.70;46.20
50067;DHT22;35952;52.524;13.340;2023-04-19T07:35:37;18.60;46.70
50067;DHT22;35952;52.524;13.340;2023-04-19T07:38:37;18.80;46.60
50067;DHT22;35952;52.524;13.340;2023-04-19T07:41:09;19.30;45.80
50067;DHT22;35952;52.524;13.340;2023-04-19T07:43:46;19.30;45.40
50067;DHT22;35952;52.524;13.340;2023-04-19T07:46:27;18.30;45.10
50067;DHT22;35952;52.524;13.340;2023-04-19T07:49:00;18.80;45.90
50067;DHT22;35952;52.524;13.340;2023-04-19T07:51:34;19.20;44.70
50067;DHT22;35952;52.524;13.340;2023-04-19T07:54:30;19.10;45.00
50067;DHT22;35952;52.524;13.340;2023-04-19T07:57:13;19.40;44.60
50067;DHT22;35952;52.524;13.340;2023-04-19T07:59:39;19.60;43.70
50067;DHT22;35952;52.524;13.340;2023-04-19T08:02:16;19.80;43.20
50067;DHT22;35952;52.524;13.340;2023-04-19T08:05:23;19.90;42.50
50067;DHT22;35952;52.524;13.340;2023-04-19T08:08:59;20.00;42.70
50067;DHT22;35952;52.524;13.340;2023-04-19T08:12:15;20.20;42.20
50067;DHT22;35952;52.524;13.340;2023-04-19T08:14:44;20.50;41.30
50067;DHT22;35952;52.524;13.340;2023-04-19T08:17:20;21.10;41.00
50067;DHT22;35952;52.524;13.340;2023-04-19T08:23:08;21.30;38.90
50067;DHT22;35952;52.524;13.340;2023-04-19T08:25:40;21.00;38.40
50067;DHT22;35952;52.524;13.340;2023-04-19T08:28:35;20.10;39.10
50067;DHT22;35952;52.524;13.340;2023-04-19T08:31:06;20.00;39.90
50067;DHT22;35952;52.524;13.340;2023-04-19T08:36:57;20.80;38.70
50067;DHT22;35952;52.524;13.340;2023-04-19T08:39:32;20.40;39.20
50067;DHT22;35952;52.524;13.340;2023-04-19T08:42:03;19.20;39.10
50067;DHT22;35952;52.524;13.340;2023-04-19T08:44:34;19.50;39.80
50067;DHT22;35952;52.524;13.340;2023-04-19T08:47:06;18.10;40.20
50067;DHT22;35952;52.524;13.340;2023-04-19T08:49:38;17.00;42.50
50067;DHT22;35952;52.524;13.340;2023-04-19T08:52:05;17.40;43.20
50067;DHT22;35952;52.524;13.340;2023-04-19T08:54:34;18.00;42.30
50067;DHT22;35952;52.524;13.340;2023-04-19T08:57:07;17.40;42.40
50067;DHT22;35952;52.524;13.340;2023-04-19T08:59:34;16.60;43.10
50067;DHT22;35952;52.524;13.340;2023-04-19T09:02:02;16.60;44.80
50067;DHT22;35952;52.524;13.340;2023-04-19T09:04:31;16.90;44.00
50067;DHT22;35952;52.524;13.340;2023-04-19T09:06:56;16.50;43.90
50067;DHT22;35952;52.524;13.340;2023-04-19T09:09:28;15.90;45.10
50067;DHT22;35952;52.524;13.340;2023-04-19T09:11:55;15.30;46.00
50067;DHT22;35952;52.524;13.340;2023-04-19T09:14:24;14.30;46.80
50067;DHT22;35952;52.524;13.340;2023-04-19T09:16:50;13.70;47.90
50067;DHT22;35952;52.524;13.340;2023-04-19T09:19:19;14.40;48.40
50067;DHT22;35952;52.524;13.340;2023-04-19T09:21:45;17.00;46.30
50067;DHT22;35952;52.524;13.340;2023-04-19T09:24:36;19.10;43.10
50067;DHT22;35952;52.524;13.340;2023-04-19T09:27:03;20.50;40.30
50067;DHT22;35952;52.524;13.340;2023-04-19T09:29:28;20.80;38.50
50067;DHT22;35952;52.524;13.340;2023-04-19T09:31:56;19.80;38.90
50067;DHT22;35952;52.524;13.340;2023-04-19T09:34:23;18.40;40.10
50067;DHT22;35952;52.524;13.340;2023-04-19T09:36:48;16.40;41.50
50067;DHT22;35952;52.524;13.340;2023-04-19T09:39:31;15.50;43.20
50067;DHT22;35952;52.524;13.340;2023-04-19T09:41:57;16.20;44.50
50067;DHT22;35952;52.524;13.340;2023-04-19T09:44:23;18.00;42.00
50067;DHT22;35952;52.524;13.340;2023-04-19T09:46:49;19.40;40.80
50067;DHT22;35952;52.524;13.340;2023-04-19T09:49:24;21.20;39.10
50067;DHT22;35952;52.524;13.340;2023-04-19T09:51:50;22.20;36.70
50067;DHT22;35952;52.524;13.340;2023-04-19T09:54:17;22.40;36.70
50067;DHT22;35952;52.524;13.340;2023-04-19T09:56:45;22.80;35.40
50067;DHT22;35952;52.524;13.340;2023-04-19T09:59:11;20.60;35.80
50067;DHT22;35952;52.524;13.340;2023-04-19T10:01:46;19.60;38.50
50067;DHT22;35952;52.524;13.340;2023-04-19T10:04:14;19.90;38.20
50067;DHT22;35952;52.524;13.340;2023-04-19T10:06:47;20.50;37.90
50067;DHT22;35952;52.524;13.340;2023-04-19T10:09:13;21.70;37.50
50067;DHT22;35952;52.524;13.340;2023-04-19T10:11:39;22.60;36.00
50067;DHT22;35952;52.524;13.340;2023-04-19T10:14:08;23.50;36.30
50067;DHT22;35952;52.524;13.340;2023-04-19T10:16:35;24.20;33.50
50067;DHT22;35952;52.524;13.340;2023-04-19T10:19:08;22.70;34.50
50067;DHT22;35952;52.524;13.340;2023-04-19T10:21:35;22.20;35.30
50067;DHT22;35952;52.524;13.340;2023-04-19T10:24:01;23.00;35.70
50067;DHT22;35952;52.524;13.340;2023-04-19T10:26:27;23.60;34.20
50067;DHT22;35952;52.524;13.340;2023-04-19T10:28:54;23.40;33.60
50067;DHT22;35952;52.524;13.340;2023-04-19T10:31:20;22.90;34.70
50067;DHT22;35952;52.524;13.340;2023-04-19T10:33:48;23.90;37.00
50067;DHT22;35952;52.524;13.340;2023-04-19T10:36:16;24.30;32.40
50067;DHT22;35952;52.524;13.340;2023-04-19T10:41:22;23.90;33.70
50067;DHT22;35952;52.524;13.340;2023-04-19T10:48:58;23.20;34.90
50067;DHT22;35952;52.524;13.340;2023-04-19T10:51:31;23.10;33.50
50067;DHT22;35952;52.524;13.340;2023-04-19T10:54:02;21.70;34.50
50067;DHT22;35952;52.524;13.340;2023-04-19T11:01:39;21.80;34.30
50067;DHT22;35952;52.524;13.340;2023-04-19T11:07:04;20.30;35.80
50067;DHT22;35952;52.524;13.340;2023-04-19T11:09:34;19.90;36.60
50067;DHT22;35952;52.524;13.340;2023-04-19T11:12:01;19.80;36.90
50067;DHT22;35952;52.524;13.340;2023-04-19T11:14:33;19.40;38.60
50067;DHT22;35952;52.524;13.340;2023-04-19T11:17:02;19.20;37.90
50067;DHT22;35952;52.524;13.340;2023-04-19T11:19:28;20.10;37.80
50067;DHT22;35952;52.524;13.340;2023-04-19T11:21:57;19.70;37.20
50067;DHT22;35952;52.524;13.340;2023-04-19T11:24:23;20.50;36.70
50067;DHT22;35952;52.524;13.340;2023-04-19T11:26:49;20.60;36.80
50067;DHT22;35952;52.524;13.340;2023-04-19T11:29:14;20.70;36.20
50067;DHT22;35952;52.524;13.340;2023-04-19T11:31:43;20.40;38.10
50067;DHT22;35952;52.524;13.340;2023-04-19T11:34:11;19.60;37.50
50067;DHT22;35952;52.524;13.340;2023-04-19T11:36:50;18.10;39.10
50067;DHT22;35952;52.524;13.340;2023-04-19T11:39:17;16.70;41.00
50067;DHT22;35952;52.524;13.340;2023-04-19T11:41:42;16.00;42.60
50067;DHT22;35952;52.524;13.340;2023-04-19T11:44:15;15.40;43.20
50067;DHT22;35952;52.524;13.340;2023-04-19T11:46:40;15.30;43.90
50067;DHT22;35952;52.524;13.340;2023-04-19T11:49:06;15.60;44.30
50067;DHT22;35952;52.524;13.340;2023-04-19T11:51:32;15.80;44.10
50067;DHT22;35952;52.524;13.340;2023-04-19T11:53:57;15.60;44.20
50067;DHT22;35952;52.524;13.340;2023-04-19T11:56:23;15.30;45.90
50067;DHT22;35952;52.524;13.340;2023-04-19T11:58:48;15.10;44.70
50067;DHT22;35952;52.524;13.340;2023-04-19T12:01:19;14.60;44.20
50067;DHT22;35952;52.524;13.340;2023-04-19T12:03:53;14.30;45.40
50067;DHT22;35952;52.524;13.340;2023-04-19T12:06:26;14.30;45.30
50067;DHT22;35952;52.524;13.340;2023-04-19T12:08:54;14.40;46.20
50067;DHT22;35952;52.524;13.340;2023-04-19T12:11:25;14.50;45.80
50067;DHT22;35952;52.524;13.340;2023-04-19T12:14:10;14.70;45.80
50067;DHT22;35952;52.524;13.340;2023-04-19T12:16:37;14.80;44.90
50067;DHT22;35952;52.524;13.340;2023-04-19T12:19:16;14.80;44.30
50067;DHT22;35952;52.524;13.340;2023-04-19T12:21:43;14.80;45.00
50067;DHT22;35952;52.524;13.340;2023-04-19T12:24:08;14.80;44.90
50067;DHT22;35952;52.524;13.340;2023-04-19T12:26:35;14.80;44.90
50067;DHT22;35952;52.524;13.340;2023-04-19T12:29:05;14.80;45.20
50067;DHT22;35952;52.524;13.340;2023-04-19T12:31:30;14.70;45.80
50067;DHT22;35952;52.524;13.340;2023-04-19T12:33:57;14.70;46.00
50067;DHT22;35952;52.524;13.340;2023-04-19T12:36:22;14.60;46.60
50067;DHT22;35952;52.524;13.340;2023-04-19T12:38:48;14.60;46.00
50067;DHT22;35952;52.524;13.340;2023-04-19T12:41:13;14.50;45.90
50067;DHT22;35952;52.524;13.340;2023-04-19T12:43:40;14.50;46.20
50067;DHT22;35952;52.524;13.340;2023-04-19T12:46:06;14.70;46.10
50067;DHT22;35952;52.524;13.340;2023-04-19T12:48:32;14.80;46.20
50067;DHT22;35952;52.524;13.340;2023-04-19T12:50:57;14.90;46.40
50067;DHT22;35952;52.524;13.340;2023-04-19T12:53:23;15.10;46.40
50067;DHT22;35952;52.524;13.340;2023-04-19T12:55:49;15.10;46.20
50067;DHT22;35952;52.524;13.340;2023-04-19T12:58:18;15.30;45.90
50067;DHT22;35952;52.524;13.340;2023-04-19T13:00:45;15.50;45.30
50067;DHT22;35952;52.524;13.340;2023-04-19T13:03:11;15.90;45.20
50067;DHT22;35952;52.524;13.340;2023-04-19T13:05:37;16.70;44.90
50067;DHT22;35952;52.524;13.340;2023-04-19T13:08:02;17.40;43.30
50067;DHT22;35952;52.524;13.340;2023-04-19T13:10:28;18.40;41.90
50067;DHT22;35952;52.524;13.340;2023-04-19T13:12:53;19.50;40.60
50067;DHT22;35952;52.524;13.340;2023-04-19T13:15:19;19.80;38.20
50067;DHT22;35952;52.524;13.340;2023-04-19T13:17:45;19.30;38.10
50067;DHT22;35952;52.524;13.340;2023-04-19T13:20:11;19.60;38.90
50067;DHT22;35952;52.524;13.340;2023-04-19T13:22:36;20.40;37.80
50067;DHT22;35952;52.524;13.340;2023-04-19T13:25:02;20.40;35.70
50067;DHT22;35952;52.524;13.340;2023-04-19T13:27:28;20.20;35.30
50067;DHT22;35952;52.524;13.340;2023-04-19T13:29:54;19.70;35.00
50067;DHT22;35952;52.524;13.340;2023-04-19T13:32:20;19.60;36.30
50067;DHT22;35952;52.524;13.340;2023-04-19T13:34:45;20.00;36.00
50067;DHT22;35952;52.524;13.340;2023-04-19T13:37:11;19.50;35.40
50067;DHT22;35952;52.524;13.340;2023-04-19T13:39:36;18.60;35.90
50067;DHT22;35952;52.524;13.340;2023-04-19T13:42:02;17.70;37.20
50067;DHT22;35952;52.524;13.340;2023-04-19T13:44:28;16.90;38.00
50067;DHT22;35952;52.524;13.340;2023-04-19T13:46:53;16.00;39.00
50067;DHT22;35952;52.524;13.340;2023-04-19T13:49:19;15.50;40.60
50067;DHT22;35952;52.524;13.340;2023-04-19T13:51:45;15.20;41.10
50067;DHT22;35952;52.524;13.340;2023-04-19T13:54:10;14.70;42.00
50067;DHT22;35952;52.524;13.340;2023-04-19T13:56:36;14.30;42.70
50067;DHT22;35952;52.524;13.340;2023-04-19T13:59:02;14.10;44.00
50067;DHT22;35952;52.524;13.340;2023-04-19T14:01:27;14.10;44.50
50067;DHT22;35952;52.524;13.340;2023-04-19T14:03:53;14.00;44.10
50067;DHT22;35952;52.524;13.340;2023-04-19T14:06:19;13.80;44.90
50067;DHT22;35952;52.524;13.340;2023-04-19T14:08:44;13.70;45.40
50067;DHT22;35952;52.524;13.340;2023-04-19T14:11:10;13.50;45.50
50067;DHT22;35952;52.524;13.340;2023-04-19T14:13:36;13.50;46.20
50067;DHT22;35952;52.524;13.340;2023-04-19T14:16:01;13.20;46.40
50067;DHT22;35952;52.524;13.340;2023-04-19T14:18:27;13.10;47.50
50067;DHT22;35952;52.524;13.340;2023-04-19T14:20:52;13.10;47.70
50067;DHT22;35952;52.524;13.340;2023-04-19T14:23:18;13.30;47.30
50067;DHT22;35952;52.524;13.340;2023-04-19T14:25:44;13.60;47.00
50067;DHT22;35952;52.524;13.340;2023-04-19T14:28:10;14.00;46.60
50067;DHT22;35952;52.524;13.340;2023-04-19T14:30:37;14.10;46.20
50067;DHT22;35952;52.524;13.340;2023-04-19T14:33:03;14.20;45.60
50067;DHT22;35952;52.524;13.340;2023-04-19T14:35:29;14.10;45.80
50067;DHT22;35952;52.524;13.340;2023-04-19T14:37:55;13.90;46.30
50067;DHT22;35952;52.524;13.340;2023-04-19T14:40:20;13.70;46.50
50067;DHT22;35952;52.524;13.340;2023-04-19T14:42:46;13.40;46.80
50067;DHT22;35952;52.524;13.340;2023-04-19T14:45:12;13.20;47.30
50067;DHT22;35952;52.524;13.340;2023-04-19T14:47:37;13.00;47.90
50067;DHT22;35952;52.524;13.340;2023-04-19T14:50:03;12.90;48.00
50067;DHT22;35952;52.524;13.340;2023-04-19T14:52:29;12.70;48.10
50067;DHT22;35952;52.524;13.340;2023-04-19T14:54:55;12.60;48.90
50067;DHT22;35952;52.524;13.340;2023-04-19T14:57:22;12.60;49.40
50067;DHT22;35952;52.524;13.340;2023-04-19T14:59:47;12.60;49.80
50067;DHT22;35952;52.524;13.340;2023-04-19T15:02:13;12.50;50.40
50067;DHT22;35952;52.524;13.340;2023-04-19T15:04:38;12.30;53.50
50067;DHT22;35952;52.524;13.340;2023-04-19T15:07:04;11.80;57.10
50067;DHT22;35952;52.524;13.340;2023-04-19T15:09:29;11.40;62.10
50067;DHT22;35952;52.524;13.340;2023-04-19T15:11:55;11.30;87.70
50067;DHT22;35952;52.524;13.340;2023-04-19T15:14:20;11.20;96.60
50067;DHT22;35952;52.524;13.340;2023-04-19T15:16:46;10.90;99.90
50067;DHT22;35952;52.524;13.340;2023-04-19T15:19:11;10.70;99.90
50067;DHT22;35952;52.524;13.340;2023-04-19T15:21:37;10.50;99.90
50067;DHT22;35952;52.524;13.340;2023-04-19T15:24:03;10.00;99.90
50067;DHT22;35952;52.524;13.340;2023-04-19T15:26:30;9.80;99.90
50067;DHT22;35952;52.524;13.340;2023-04-19T15:28:56;9.50;99.90
50067;DHT22;35952;52.524;13.340;2023-04-19T15:31:23;9.00;99.90
50067;DHT22;35952;52.524;13.340;2023-04-19T15:33:49;8.50;99.90
50067;DHT22;35952;52.524;13.340;2023-04-19T15:36:14;8.10;99.90
50067;DHT22;35952;52.524;13.340;2023-04-19T15:38:40;7.80;99.90
50067;DHT22;35952;52.524;13.340;2023-04-19T15:41:06;7.70;99.90
50067;DHT22;35952;52.524;13.340;2023-04-19T15:43:31;7.60;99.90
50067;DHT22;35952;52.524;13.340;2023-04-19T15:45:57;7.60;99.90
50067;DHT22;35952;52.524;13.340;2023-04-19T15:48:22;7.70;99.90
50067;DHT22;35952;52.524;13.340;2023-04-19T15:50:48;7.70;99.90
50067;DHT22;35952;52.524;13.340;2023-04-19T15:53:14;7.70;99.90
50067;DHT22;35952;52.524;13.340;2023-04-19T15:55:39;7.60;99.90
50067;DHT22;35952;52.524;13.340;2023-04-19T15:58:05;7.60;99.90
50067;DHT22;35952;52.524;13.340;2023-04-19T16:00:31;7.40;99.90
50067;DHT22;35952;52.524;13.340;2023-04-19T16:02:57;7.30;99.90
50067;DHT22;35952;52.524;13.340;2023-04-19T16:05:22;7.20;99.90
50067;DHT22;35952;52.524;13.340;2023-04-19T16:08:06;6.90;99.90
50067;DHT22;35952;52.524;13.340;2023-04-19T16:10:32;6.90;99.90
50067;DHT22;35952;52.524;13.340;2023-04-19T16:12:58;6.90;99.90
50067;DHT22;35952;52.524;13.340;2023-04-19T16:15:24;6.90;99.90
50067;DHT22;35952;52.524;13.340;2023-04-19T16:17:50;7.00;99.90
50067;DHT22;35952;52.524;13.340;2023-04-19T16:20:17;6.90;99.90